Time,TemperatureF,DewpointF,PressureIn,WindDirection,WindDirectionDegrees,WindSpeedMPH,WindSpeedGustMPH,Humidity,HourlyPrecipIn,Conditions,Clouds,dailyrainin,SoftwareType,DateUTC
2013-03-16 00:02:00,61.0,54.0,30.21,North,9,4.0,7.0,77,0.00,,,0.00,,2013-03-16 04:02:00,
2013-03-16 00:13:00,61.0,54.0,30.21,North,9,4.0,7.0,77,0.00,,,0.00,,2013-03-16 04:13:00,
2013-03-16 00:23:00,61.0,54.0,30.21,NW,318,3.0,6.0,77,0.00,,,0.00,,2013-03-16 04:23:00,
2013-03-16 00:33:00,61.0,54.0,30.21,NW,318,3.0,6.0,77,0.00,,,0.00,,2013-03-16 04:33:00,
2013-03-16 00:43:00,61.0,54.0,30.21,NW,318,3.0,6.0,77,0.00,,,0.00,,2013-03-16 04:43:00,
2013-03-16 00:53:00,61.0,54.0,30.21,NW,318,3.0,6.0,77,0.00,,,0.00,,2013-03-16 04:53:00,
2013-03-16 01:02:00,60.0,53.0,30.21,NNW,332,2.0,4.0,78,0.00,,,0.00,,2013-03-16 05:02:00,
2013-03-16 01:12:00,60.0,53.0,30.21,NNW,332,2.0,4.0,78,0.00,,,0.00,,2013-03-16 05:12:00,
2013-03-16 01:22:00,60.0,53.0,30.21,NW,321,1.0,3.0,79,0.00,,,0.00,,2013-03-16 05:22:00,
2013-03-16 01:32:00,60.0,54.0,30.21,WNW,300,2.0,4.0,80,0.00,,,0.00,,2013-03-16 05:32:00,
2013-03-16 01:42:00,60.0,54.0,30.21,WNW,300,2.0,4.0,80,0.00,,,0.00,,2013-03-16 05:42:00,
2013-03-16 01:53:00,59.0,53.0,30.20,NW,309,1.0,4.0,81,0.00,,,0.00,,2013-03-16 05:53:00,
2013-03-16 02:02:00,59.0,53.0,30.20,NW,323,2.0,5.0,81,0.00,,,0.00,,2013-03-16 06:02:00,
2013-03-16 02:12:00,59.0,53.0,30.20,NW,323,2.0,5.0,81,0.00,,,0.00,,2013-03-16 06:12:00,
2013-03-16 02:22:00,59.0,54.0,30.20,NW,324,3.0,6.0,82,0.00,,,0.00,,2013-03-16 06:22:00,
2013-03-16 02:32:00,59.0,54.0,30.19,NNW,332,2.0,6.0,82,0.00,,,0.00,,2013-03-16 06:32:00,
2013-03-16 02:42:00,59.0,54.0,30.19,NNW,332,2.0,6.0,82,0.00,,,0.00,,2013-03-16 06:42:00,
2013-03-16 02:52:00,59.0,53.0,30.19,North,352,4.0,6.0,81,0.00,,,0.00,,2013-03-16 06:52:00,
2013-03-16 03:02:00,59.0,53.0,30.19,NW,320,2.0,5.0,81,0.00,,,0.00,,2013-03-16 07:02:00,
2013-03-16 03:12:00,59.0,53.0,30.19,NW,320,2.0,5.0,81,0.00,,,0.00,,2013-03-16 07:12:00,
2013-03-16 03:22:00,59.0,53.0,30.18,NW,322,2.0,5.0,81,0.00,,,0.00,,2013-03-16 07:22:00,
2013-03-16 03:32:00,59.0,53.0,30.18,NW,322,2.0,5.0,81,0.00,,,0.00,,2013-03-16 07:32:00,
2013-03-16 03:42:00,59.0,53.0,30.18,NW,322,2.0,5.0,81,0.00,,,0.00,,2013-03-16 07:42:00,
2013-03-16 03:52:00,59.0,54.0,30.18,NW,314,2.0,5.0,82,0.00,,,0.00,,2013-03-16 07:52:00,
2013-03-16 04:03:00,59.0,54.0,30.18,NW,311,1.0,3.0,82,0.00,,,0.00,,2013-03-16 08:03:00,
2013-03-16 04:12:00,59.0,54.0,30.18,NW,311,1.0,3.0,82,0.00,,,0.00,,2013-03-16 08:12:00,
2013-03-16 04:23:00,58.0,53.0,30.17,NW,316,2.0,3.0,83,0.00,,,0.00,,2013-03-16 08:23:00,
2013-03-16 04:32:00,58.0,53.0,30.17,NW,304,1.0,3.0,83,0.00,,,0.00,,2013-03-16 08:32:00,
2013-03-16 04:42:00,58.0,53.0,30.17,NW,304,1.0,3.0,83,0.00,,,0.00,,2013-03-16 08:42:00,
2013-03-16 04:52:00,58.0,53.0,30.18,NW,308,2.0,3.0,83,0.00,,,0.00,,2013-03-16 08:52:00,
2013-03-16 05:02:00,58.0,53.0,30.18,WNW,293,0.0,3.0,84,0.00,,,0.00,,2013-03-16 09:02:00,
2013-03-16 05:12:00,58.0,53.0,30.18,WNW,293,0.0,3.0,84,0.00,,,0.00,,2013-03-16 09:12:00,
2013-03-16 05:22:00,58.0,53.0,30.18,NW,318,1.0,3.0,84,0.00,,,0.00,,2013-03-16 09:22:00,
2013-03-16 05:33:00,58.0,53.0,30.18,NW,314,2.0,4.0,83,0.00,,,0.00,,2013-03-16 09:33:00,
2013-03-16 05:42:00,58.0,53.0,30.18,NW,314,2.0,4.0,83,0.00,,,0.00,,2013-03-16 09:42:00,
2013-03-16 05:53:00,58.0,53.0,30.18,WNW,297,1.0,3.0,83,0.00,,,0.00,,2013-03-16 09:53:00,
2013-03-16 06:03:00,58.0,53.0,30.18,WNW,294,1.0,2.0,83,0.00,,,0.00,,2013-03-16 10:03:00,
2013-03-16 06:12:00,58.0,53.0,30.18,WNW,294,1.0,2.0,83,0.00,,,0.00,,2013-03-16 10:12:00,
2013-03-16 06:23:00,58.0,53.0,30.18,WNW,301,1.0,3.0,83,0.00,,,0.00,,2013-03-16 10:23:00,
2013-03-16 06:32:00,57.0,52.0,30.18,NW,311,1.0,3.0,83,0.00,,,0.00,,2013-03-16 10:32:00,
2013-03-16 06:42:00,57.0,52.0,30.18,NW,311,1.0,3.0,83,0.00,,,0.00,,2013-03-16 10:42:00,
2013-03-16 06:53:00,57.0,52.0,30.18,NW,311,1.0,3.0,83,0.00,,,0.00,,2013-03-16 10:53:00,
2013-03-16 07:03:00,57.0,52.0,30.20,North,1,1.0,2.0,84,0.00,,,0.00,,2013-03-16 11:03:00,
2013-03-16 07:12:00,57.0,52.0,30.20,North,1,1.0,2.0,84,0.00,,,0.00,,2013-03-16 11:12:00,
2013-03-16 07:22:00,58.0,53.0,30.20,NW,314,1.0,3.0,82,0.00,,,0.00,,2013-03-16 11:22:00,
2013-03-16 07:33:00,58.0,53.0,30.20,NNW,328,3.0,5.0,83,0.00,,,0.00,,2013-03-16 11:33:00,
2013-03-16 07:43:00,58.0,53.0,30.20,NNW,328,3.0,5.0,83,0.00,,,0.00,,2013-03-16 11:43:00,
2013-03-16 07:53:00,57.0,52.0,30.20,NW,306,2.0,4.0,83,0.00,,,0.00,,2013-03-16 11:53:00,
2013-03-16 08:02:00,57.0,52.0,30.21,NW,319,3.0,5.0,83,0.00,,,0.00,,2013-03-16 12:02:00,
2013-03-16 08:12:00,57.0,52.0,30.21,NW,319,3.0,5.0,83,0.00,,,0.00,,2013-03-16 12:12:00,
2013-03-16 08:22:00,57.0,52.0,30.21,NW,319,3.0,5.0,83,0.00,,,0.00,,2013-03-16 12:22:00,
2013-03-16 08:32:00,58.0,52.0,30.22,NW,326,2.0,5.0,81,0.00,,,0.00,,2013-03-16 12:32:00,
2013-03-16 08:42:00,58.0,52.0,30.22,NW,326,2.0,5.0,81,0.00,,,0.00,,2013-03-16 12:42:00,
2013-03-16 08:53:00,59.0,53.0,30.22,WNW,297,3.0,5.0,80,0.00,,,0.00,,2013-03-16 12:53:00,
2013-03-16 09:02:00,60.0,53.0,30.22,West,270,0.0,2.0,79,0.00,,,0.00,,2013-03-16 13:02:00,
2013-03-16 09:12:00,60.0,53.0,30.22,West,270,0.0,2.0,79,0.00,,,0.00,,2013-03-16 13:12:00,
2013-03-16 09:22:00,62.0,54.0,30.22,West,281,1.0,2.0,75,0.00,,,0.00,,2013-03-16 13:22:00,
2013-03-16 09:32:00,63.0,54.0,30.23,WNW,297,1.0,2.0,72,0.00,,,0.00,,2013-03-16 13:32:00,
2013-03-16 09:42:00,63.0,54.0,30.23,WNW,297,1.0,2.0,72,0.00,,,0.00,,2013-03-16 13:42:00,
2013-03-16 09:53:00,65.0,56.0,30.22,SW,232,0.0,3.0,73,0.00,,,0.00,,2013-03-16 13:53:00,
2013-03-16 10:03:00,66.0,53.0,30.22,SW,225,2.0,3.0,64,0.00,,,0.00,,2013-03-16 14:03:00,
2013-03-16 10:12:00,66.0,53.0,30.22,SW,225,2.0,3.0,64,0.00,,,0.00,,2013-03-16 14:12:00,
2013-03-16 10:22:00,67.0,54.0,30.22,WSW,242,0.0,3.0,62,0.00,,,0.00,,2013-03-16 14:22:00,
2013-03-16 10:32:00,69.0,53.0,30.22,WSW,254,2.0,4.0,57,0.00,,,0.00,,2013-03-16 14:32:00,
2013-03-16 10:42:00,69.0,53.0,30.22,WSW,254,2.0,4.0,57,0.00,,,0.00,,2013-03-16 14:42:00,
2013-03-16 10:53:00,70.0,53.0,30.22,SSW,194,0.0,3.0,55,0.00,,,0.00,,2013-03-16 14:53:00,
2013-03-16 11:03:00,71.0,52.0,30.22,South,177,2.0,4.0,51,0.00,,,0.00,,2013-03-16 15:03:00,
2013-03-16 11:13:00,71.0,52.0,30.22,South,177,2.0,4.0,51,0.00,,,0.00,,2013-03-16 15:13:00,
2013-03-16 11:23:00,71.0,54.0,30.22,SSE,149,2.0,6.0,54,0.00,,,0.00,,2013-03-16 15:23:00,
2013-03-16 11:33:00,72.0,54.0,30.22,SSE,150,2.0,5.0,53,0.00,,,0.00,,2013-03-16 15:33:00,
2013-03-16 11:43:00,72.0,54.0,30.22,SSE,150,2.0,5.0,53,0.00,,,0.00,,2013-03-16 15:43:00,
2013-03-16 11:53:00,72.0,53.0,30.22,SSE,148,3.0,6.0,52,0.00,,,0.00,,2013-03-16 15:53:00,
2013-03-16 12:03:00,71.0,54.0,30.21,ESE,117,3.0,7.0,54,0.00,,,0.00,,2013-03-16 16:03:00,
2013-03-16 12:13:00,71.0,54.0,30.21,ESE,117,3.0,7.0,54,0.00,,,0.00,,2013-03-16 16:13:00,
2013-03-16 12:23:00,71.0,52.0,30.21,SE,132,3.0,8.0,51,0.00,,,0.00,,2013-03-16 16:23:00,
2013-03-16 12:33:00,72.0,51.0,30.21,SSE,155,7.0,11.0,48,0.00,,,0.00,,2013-03-16 16:33:00,
2013-03-16 12:42:00,72.0,51.0,30.21,SSE,155,7.0,11.0,48,0.00,,,0.00,,2013-03-16 16:42:00,
2013-03-16 12:53:00,72.0,52.0,30.20,SE,143,5.0,10.0,49,0.00,,,0.00,,2013-03-16 16:53:00,
2013-03-16 13:03:00,72.0,53.0,30.20,SE,132,6.0,12.0,51,0.00,,,0.00,,2013-03-16 17:03:00,
2013-03-16 13:13:00,72.0,53.0,30.20,SE,132,6.0,12.0,51,0.00,,,0.00,,2013-03-16 17:13:00,
2013-03-16 13:23:00,72.0,53.0,30.20,SE,145,5.0,11.0,51,0.00,,,0.00,,2013-03-16 17:23:00,
2013-03-16 13:33:00,72.0,54.0,30.19,SSE,148,5.0,9.0,54,0.00,,,0.00,,2013-03-16 17:33:00,
2013-03-16 13:42:00,72.0,54.0,30.19,SSE,148,5.0,9.0,54,0.00,,,0.00,,2013-03-16 17:42:00,
2013-03-16 13:53:00,73.0,53.0,30.19,SE,139,7.0,11.0,49,0.00,,,0.00,,2013-03-16 17:53:00,
2013-03-16 14:02:00,73.0,53.0,30.18,SE,131,6.0,12.0,50,0.00,,,0.00,,2013-03-16 18:02:00,
2013-03-16 14:13:00,73.0,53.0,30.18,SE,131,6.0,12.0,50,0.00,,,0.00,,2013-03-16 18:13:00,
2013-03-16 14:23:00,73.0,54.0,30.18,SE,142,6.0,11.0,52,0.00,,,0.00,,2013-03-16 18:23:00,
2013-03-16 14:33:00,73.0,54.0,30.17,ESE,115,8.0,11.0,52,0.00,,,0.00,,2013-03-16 18:33:00,
2013-03-16 14:43:00,73.0,54.0,30.17,ESE,115,8.0,11.0,52,0.00,,,0.00,,2013-03-16 18:43:00,
2013-03-16 14:53:00,72.0,53.0,30.16,SSE,153,7.0,12.0,51,0.00,,,0.00,,2013-03-16 18:53:00,
2013-03-16 15:02:00,72.0,53.0,30.16,SSE,153,7.0,12.0,51,0.00,,,0.00,,2013-03-16 19:02:00,
2013-03-16 15:12:00,72.0,53.0,30.16,SSE,153,7.0,12.0,51,0.00,,,0.00,,2013-03-16 19:12:00,
2013-03-16 15:22:00,73.0,55.0,30.15,SSE,150,7.0,12.0,53,0.00,,,0.00,,2013-03-16 19:22:00,
2013-03-16 15:32:00,72.0,54.0,30.14,SSE,148,10.0,14.0,54,0.00,,,0.00,,2013-03-16 19:32:00,
2013-03-16 15:42:00,72.0,54.0,30.14,SSE,148,10.0,14.0,54,0.00,,,0.00,,2013-03-16 19:42:00,
2013-03-16 15:52:00,72.0,54.0,30.14,SE,128,8.0,13.0,54,0.00,,,0.00,,2013-03-16 19:52:00,
2013-03-16 16:02:00,72.0,55.0,30.14,SE,146,8.0,14.0,56,0.00,,,0.00,,2013-03-16 20:02:00,
2013-03-16 16:12:00,72.0,55.0,30.14,SE,146,8.0,14.0,56,0.00,,,0.00,,2013-03-16 20:12:00,
2013-03-16 16:22:00,72.0,56.0,30.13,SE,129,8.0,14.0,57,0.00,,,0.00,,2013-03-16 20:22:00,
2013-03-16 16:33:00,72.0,55.0,30.13,SE,131,8.0,14.0,56,0.00,,,0.00,,2013-03-16 20:33:00,
2013-03-16 16:42:00,72.0,55.0,30.13,SE,131,8.0,14.0,56,0.00,,,0.00,,2013-03-16 20:42:00,
2013-03-16 16:52:00,72.0,56.0,30.13,South,172,9.0,14.0,57,0.00,,,0.00,,2013-03-16 20:52:00,
2013-03-16 17:02:00,72.0,56.0,30.13,South,172,9.0,14.0,57,0.00,,,0.00,,2013-03-16 21:02:00,
2013-03-16 17:12:00,72.0,56.0,30.13,South,172,9.0,14.0,57,0.00,,,0.00,,2013-03-16 21:12:00,
2013-03-16 17:22:00,71.0,54.0,30.12,SSE,161,9.0,14.0,56,0.00,,,0.00,,2013-03-16 21:22:00,
2013-03-16 17:33:00,72.0,56.0,30.12,SE,146,9.0,14.0,58,0.00,,,0.00,,2013-03-16 21:33:00,
2013-03-16 17:43:00,72.0,56.0,30.12,SE,146,9.0,14.0,58,0.00,,,0.00,,2013-03-16 21:43:00,
2013-03-16 17:52:00,71.0,57.0,30.12,SSE,156,10.0,15.0,62,0.00,,,0.00,,2013-03-16 21:52:00,
2013-03-16 18:03:00,72.0,56.0,30.12,SSE,150,10.0,17.0,58,0.00,,,0.00,,2013-03-16 22:03:00,
2013-03-16 18:13:00,72.0,56.0,30.12,SSE,150,10.0,17.0,58,0.00,,,0.00,,2013-03-16 22:13:00,
2013-03-16 18:23:00,72.0,57.0,30.12,SE,146,8.0,15.0,60,0.00,,,0.00,,2013-03-16 22:23:00,
2013-03-16 18:33:00,71.0,55.0,30.12,SSE,153,11.0,16.0,58,0.00,,,0.00,,2013-03-16 22:33:00,
2013-03-16 18:42:00,71.0,55.0,30.12,SSE,153,11.0,16.0,58,0.00,,,0.00,,2013-03-16 22:42:00,
2013-03-16 18:52:00,71.0,55.0,30.12,South,182,9.0,15.0,58,0.00,,,0.00,,2013-03-16 22:52:00,
2013-03-16 19:02:00,71.0,55.0,30.13,SSW,207,8.0,15.0,58,0.00,,,0.00,,2013-03-16 23:02:00,
2013-03-16 19:13:00,71.0,55.0,30.13,SSW,207,8.0,15.0,58,0.00,,,0.00,,2013-03-16 23:13:00,
2013-03-16 19:23:00,70.0,55.0,30.13,SSE,155,10.0,16.0,60,0.00,,,0.00,,2013-03-16 23:23:00,
2013-03-16 19:33:00,70.0,54.0,30.13,SSE,160,9.0,15.0,57,0.00,,,0.00,,2013-03-16 23:33:00,
2013-03-16 19:42:00,70.0,54.0,30.13,SSE,160,9.0,15.0,57,0.00,,,0.00,,2013-03-16 23:42:00,
2013-03-16 19:52:00,69.0,55.0,30.13,SSE,151,11.0,19.0,62,0.00,,,0.00,,2013-03-16 23:52:00,
2013-03-16 20:02:00,68.0,54.0,30.12,South,176,10.0,19.0,62,0.00,,,0.00,,2013-03-17 00:02:00,
2013-03-16 20:13:00,68.0,54.0,30.12,South,176,10.0,19.0,62,0.00,,,0.00,,2013-03-17 00:13:00,
2013-03-16 20:23:00,68.0,55.0,30.13,SSE,160,10.0,17.0,64,0.00,,,0.00,,2013-03-17 00:23:00,
2013-03-16 20:33:00,68.0,55.0,30.13,SSE,163,11.0,18.0,63,0.00,,,0.00,,2013-03-17 00:33:00,
2013-03-16 20:42:00,68.0,55.0,30.13,SSE,163,11.0,18.0,63,0.00,,,0.00,,2013-03-17 00:42:00,
2013-03-16 20:52:00,68.0,55.0,30.13,South,174,11.0,18.0,64,0.00,,,0.00,,2013-03-17 00:52:00,
2013-03-16 21:03:00,68.0,55.0,30.14,SSE,163,10.0,17.0,64,0.00,,,0.00,,2013-03-17 01:03:00,
2013-03-16 21:12:00,68.0,55.0,30.14,SSE,163,10.0,17.0,64,0.00,,,0.00,,2013-03-17 01:12:00,
2013-03-16 21:22:00,68.0,56.0,30.14,South,188,9.0,16.0,65,0.00,,,0.00,,2013-03-17 01:22:00,
2013-03-16 21:32:00,68.0,56.0,30.14,SSE,148,11.0,16.0,65,0.00,,,0.00,,2013-03-17 01:32:00,
2013-03-16 21:42:00,68.0,56.0,30.14,SSE,148,11.0,16.0,65,0.00,,,0.00,,2013-03-17 01:42:00,
2013-03-16 21:52:00,68.0,56.0,30.15,South,169,12.0,20.0,66,0.00,,,0.00,,2013-03-17 01:52:00,
2013-03-16 22:03:00,68.0,56.0,30.15,SSW,193,10.0,15.0,66,0.00,,,0.00,,2013-03-17 02:03:00,
2013-03-16 22:13:00,68.0,56.0,30.15,SSW,193,10.0,15.0,66,0.00,,,0.00,,2013-03-17 02:13:00,
2013-03-16 22:22:00,68.0,56.0,30.15,South,170,10.0,16.0,66,0.00,,,0.00,,2013-03-17 02:22:00,
2013-03-16 22:33:00,68.0,57.0,30.16,South,184,8.0,17.0,68,0.00,,,0.00,,2013-03-17 02:33:00,
2013-03-16 22:43:00,68.0,57.0,30.16,South,184,8.0,17.0,68,0.00,,,0.00,,2013-03-17 02:43:00,
2013-03-16 22:52:00,68.0,56.0,30.16,South,179,10.0,15.0,66,0.00,,,0.00,,2013-03-17 02:52:00,
2013-03-16 23:03:00,68.0,56.0,30.16,SSE,157,6.0,16.0,66,0.00,,,0.00,,2013-03-17 03:03:00,
2013-03-16 23:12:00,68.0,56.0,30.16,SSE,157,6.0,16.0,66,0.00,,,0.00,,2013-03-17 03:12:00,
2013-03-16 23:23:00,68.0,56.0,30.16,SSE,154,8.0,11.0,66,0.00,,,0.00,,2013-03-17 03:23:00,
2013-03-16 23:34:00,68.0,56.0,30.16,SSE,155,6.0,10.0,65,0.00,,,0.00,,2013-03-17 03:34:00,
2013-03-16 23:43:00,68.0,56.0,30.16,SSE,155,6.0,10.0,65,0.00,,,0.00,,2013-03-17 03:43:00,
2013-03-16 23:52:00,68.0,56.0,30.16,South,188,4.0,10.0,65,0.00,,,0.00,,2013-03-17 03:52:00,